x

9442396 - La Push, Wa (lapw1) Weather Station

5:36 - Sun 2nd Aug 2015 All times are PDT. -7 hours from GMT.

  • Wind
    2mph, 3mph gusts
  • Sea Temp 49°f
  • Luft Temp 53°f
  • Sea Pressure 1014mb
  • 9442396 - La Push, Wa
  • 9442396 - La Push, Wa

More Historic Weather Station data

Upgrade to MSW Pro to gain access to the past 30 days of data for over 8000 Wavebouys and Weather Stations around the globe.

Join Pro

Comparision Forecast

View Surf forecast
   
So 08/02 5:36 2 3 mph 1014mb 49f 53f
5:30 2 5 mph 1014mb 49f 53f
5:24 3
mph
1014mb 49f 53f
5:18  -  3 mph 1014mb 49f 53f
5:12 1 2 mph 1014mb 49f 53f
5:06 1 3 mph 1013.9mb 49f 54f
5:00 2 5 mph 1013.8mb 49f 54f
4:36 5 6 mph 1013.7mb 49f 54f
4:30 5 6 mph 1013.7mb 49f 54f
4:24 5 6 mph 1013.7mb 49f 54f
4:18 3 5 mph 1013.8mb 49f 54f
4:12 2 3 mph 1013.8mb 49f 54f
4:06 3
mph
1013.8mb 49f 55f
4:00 3
mph
1013.8mb 49f 54f
3:36 2
mph
1013.9mb 49f 55f
3:30  -  1 mph 1013.8mb 49f 55f
3:24  -  1 mph 1013.9mb 49f 55f
3:18  -  1 mph 1014mb 49f 55f
3:12  -  1 mph 1014mb 49f 55f
3:06 2 5 mph 1013.9mb 49f 55f
3:00 3 6 mph 1013.8mb 49f 56f
2:36 5 6 mph 1014mb 49f 55f
2:30 5
mph
1013.9mb 49f 55f
2:24 3 5 mph 1014mb 49f 55f
2:18 3
mph
1013.9mb 49f 56f
2:12  -  5 mph 1013.9mb 49f 56f
2:06 2 3 mph 1013.8mb 49f 58f
2:00 2 6 mph 1013.8mb 49f 58f
1:36 8 9 mph 1013.9mb 49f 57f
1:30 8 10 mph 1014mb 49f 57f
1:24 9 10 mph 1014mb 49f 58f
1:18 8 9 mph 1014.1mb 49f 58f
1:12 6 7 mph 1014.1mb 49f 58f
1:06 3 5 mph 1014.1mb 49f 58f
1:00 2 5 mph 1014.1mb 49f 58f
12:36 5 6 mph 1014.3mb 49f 58f
12:30 5 6 mph 1014.4mb 49f 58f
12:24 3 6 mph 1014.4mb 49f 58f
12:18 5 7 mph 1014.4mb 49f 58f
12:12 5 7 mph 1014.4mb 49f 58f
12:06 6 7 mph 1014.5mb 49f 58f
12:00 3 7 mph 1014.6mb 49f 58f
Sa 08/01 11:36 5 7 mph 1014.9mb 50f 58f
11:30 5 8 mph 1014.9mb 50f 58f
11:24 5 7 mph 1015mb 50f 58f
11:18 5 6 mph 1015mb 50f 58f
11:12 3 7 mph 1015.1mb 50f 58f
11:06 3 7 mph 1015.1mb 50f 58f
11:00 6 8 mph 1015.1mb 50f 58f
10:36 3 6 mph 1015.2mb 50f 59f
10:30 3 5 mph 1015.3mb 50f 59f
10:24 3 6 mph 1015.3mb 50f 59f
10:18 3 7 mph 1015.3mb 50f 59f
10:12 2 7 mph 1015.3mb 50f 59f
10:06 3 6 mph 1015.3mb 50f 59f
10:00 5 8 mph 1015.4mb 50f 59f
9:36 7 11 mph 1015.3mb 51f 60f
9:30 11 13 mph 1015.3mb 51f 60f
9:24 9 10 mph 1015.3mb 51f 60f
9:18 8 13 mph 1015.3mb 51f 60f
9:12 9 13 mph 1015.3mb 51f 60f
9:06 11 15 mph 1015.3mb 52f 60f
9:00 11 15 mph 1015.3mb 52f 60f
8:36 7 11 mph 1015.1mb 54f 60f
8:30 11 13 mph 1015.1mb 55f 60f
8:24 9 13 mph 1015.1mb 55f 60f
8:18 7 10 mph 1015.1mb 55f 60f
8:12 8 9 mph 1015.1mb 55f 60f
8:06 7 11 mph 1015.1mb 55f 60f
8:00 8 11 mph 1015.1mb 54f 61f
7:36 8 14 mph 1015.2mb 51f 61f
7:30 13 16 mph 1015.2mb 51f 61f
7:24 14 17 mph 1015.2mb 50f 61f
7:18 14 16 mph 1015.3mb 50f 61f
7:12 14 16 mph 1015.4mb 50f 61f
7:06 14 18 mph 1015.4mb 50f 60f
7:00 16 20 mph 1015.5mb 49f 60f
6:36 15 20 mph 1015.6mb 49f 60f
6:30 15 20 mph 1015.6mb 49f 60f
6:24 16 21 mph 1015.4mb 49f 61f
6:18 17 21 mph 1015.5mb 49f 60f
6:12 17 23 mph 1015.7mb 49f 60f
6:06 18 23 mph 1015.6mb 48f 60f
6:00 17 23 mph 1015.7mb 48f 60f
5:36 17 21 mph 1016mb 48f 59f
5:30 17 22 mph 1016mb 48f 59f
5:24 20 23 mph 1016mb 48f 60f
5:18 17 22 mph 1016mb 48f 59f
5:12 18 22 mph 1016.1mb 48f 59f
5:06 18 24 mph 1016.1mb 49f 59f
5:00 18 23 mph 1016mb 49f 59f
4:36 20 23 mph 1015.7mb 48f 58f
4:30 18 23 mph 1015.7mb 48f 58f
4:24 20 24 mph 1015.8mb 48f 59f
4:18 21 24 mph 1015.8mb 48f 59f
4:12 18 22 mph 1015.9mb 48f 59f
4:06 18 23 mph 1015.9mb 48f 59f
4:00 18 23 mph 1016mb 48f 58f
3:36 16 21 mph 1016.1mb 48f 58f
3:30 16 20 mph 1016.3mb 48f 58f
3:24 16 20 mph 1016.4mb 48f 58f
3:18 16 18 mph 1016.4mb 48f 58f
3:12 14 18 mph 1016.4mb 48f 58f
3:06 15 17 mph 1016.5mb 48f 58f
3:00 14 18 mph 1016.4mb 48f 57f
2:36 15 17 mph 1016.6mb 48f 57f
2:30 13 16 mph 1016.6mb 48f 57f
2:24 14 16 mph 1016.6mb 48f 57f
2:18 14 16 mph 1016.7mb 48f 56f
2:12 15 17 mph 1016.7mb 48f 56f
2:06 15 18 mph 1016.7mb 48f 56f
2:00 14 18 mph 1016.6mb 48f 56f
1:36 13 14 mph 1017mb 49f 55f
1:30 11 13 mph 1017.1mb 49f 55f
1:24 9 11 mph 1017.2mb 49f 55f
1:18 8 9 mph 1017.2mb 48f 55f
1:12 8 10 mph 1017.1mb 48f 56f
1:06 8 10 mph 1017.2mb 48f 56f
1:00 9 11 mph 1017.1mb 48f 56f
12:36 7 8 mph 1017mb 48f 56f
12:30 6 7 mph 1017.1mb 48f 56f
12:24 6 8 mph 1017.2mb 48f 56f
12:18 6 7 mph 1017.2mb 48f 56f
12:12 6 7 mph 1017.3mb 48f 56f
12:06 6 7 mph 1017.3mb 48f 56f
12:00 6 7 mph 1017.2mb 48f 56f
11:36 3 5 mph 1017.2mb 48f 56f
11:30 3 5 mph 1017.2mb 48f 56f
11:24 3 5 mph 1017.1mb 48f 56f
11:18 2 5 mph 1017.1mb 48f 56f
11:12 3 5 mph 1017mb 48f 56f
11:06 3 5 mph 1016.9mb 48f 56f
11:00 3 5 mph 1017mb 48f 56f
10:36 5 6 mph 1016.8mb 48f 55f
10:30 3 6 mph 1016.8mb 48f 55f
10:24 5 6 mph 1016.8mb 48f 55f
10:18 2 3 mph 1016.9mb 48f 56f
10:12 1 2 mph 1016.9mb 49f 56f
10:06 2
mph
1017mb 49f 55f
10:00 2 3 mph 1017mb 50f 55f
9:36 3 5 mph 1017mb 54f 55f
9:30 5 6 mph 1017mb 56f 55f
9:24 6
mph
1017mb 57f 55f
9:18 3 5 mph 1016.9mb 57f 55f
9:12 2
mph
1016.9mb 57f 55f
9:06 1 3 mph 1016.7mb 57f 55f
9:00 3 5 mph 1016.6mb 57f 56f
8:36  -  2 mph 1016.9mb 57f 55f
8:30  -  2 mph 1017mb 57f 55f
8:24  -  3 mph 1016.9mb 57f 55f
8:18 2 3 mph 1016.9mb 57f 55f
8:12 2 5 mph 1016.9mb 58f 55f
8:06 2 3 mph 1016.9mb 58f 55f
8:00 2 6 mph 1016.9mb 58f 55f
7:36 3 5 mph 1017mb 57f 54f
7:30 5 6 mph 1016.9mb 57f 54f
7:24 3 5 mph 1017mb 57f 54f
7:18 3 5 mph 1017mb 57f 54f
7:12 2 3 mph 1017mb 57f 54f
7:06 2 3 mph 1017mb 57f 54f
7:00 3 5 mph 1016.9mb 57f 54f
6:54 3 6 mph 1016.7mb 57f 54f
6:48 5 6 mph 1016.6mb 57f 54f
6:36 3 6 mph 1016.3mb 56f 55f
6:30 5 7 mph 1016.4mb 55f 55f
6:24 3 6 mph 1016.4mb 54f 55f
6:18 2 6 mph 1016.6mb 53f 55f
6:12 3 6 mph 1016.6mb 52f 55f
6:06 5 6 mph 1016.5mb 51f 55f
6:00 3 6 mph 1016.6mb 51f 56f
5:54 3 5 mph 1016.6mb 50f 56f
5:48 3 5 mph 1016.6mb 50f 56f
5:36 2 3 mph 1016.5mb 49f 56f
5:30 2 6 mph 1016.6mb 49f 56f
5:24 5 6 mph 1016.5mb 49f 56f
5:18 3
mph
1016.5mb 49f 56f
5:12 2 3 mph 1016.6mb 49f 56f
5:06 3 5 mph 1016.6mb 48f 56f
5:00 2 3 mph 1016.6mb 48f 56f
4:54 2 5 mph 1016.6mb 48f 56f
4:48 3 5 mph 1016.6mb 48f 56f
4:36  -  2 mph 1016.6mb 48f 56f
4:30 2 5 mph 1016.6mb 48f 56f
4:24  -  1 mph 1016.5mb 48f 56f
4:18 1 5 mph 1016.4mb 48f 56f
4:12 2 5 mph 1016.3mb 48f 56f
4:06 2 3 mph 1016.3mb 48f 56f
4:00 3 5 mph 1016.3mb 48f 57f
3:54 2 3 mph 1016.4mb 48f 57f
3:48 1 2 mph 1016.4mb 48f 57f
3:36 2 5 mph 1016.4mb 48f 57f
3:30 2 3 mph 1016.3mb 48f 57f
3:24 3 5 mph 1016.5mb 48f 57f
3:18 2 3 mph 1016.5mb 48f 57f
3:12 2 5 mph 1016.5mb 48f 57f
3:06 2 5 mph 1016.5mb 48f 57f
3:00 3 5 mph 1016.5mb 48f 57f
2:54 6 7 mph 1016.5mb 48f 58f
2:48 3 8 mph 1016.6mb 48f 58f
2:36 6 7 mph 1016.8mb 48f 58f
2:30 7 8 mph 1016.9mb 48f 58f
2:24 5 6 mph 1017mb 48f 58f
2:18 3 7 mph 1017mb 48f 58f
2:12 5 8 mph 1017mb 48f 58f
2:06 3 6 mph 1017mb 48f 58f
2:00 5 10 mph 1017.2mb 48f 58f
1:54 7 8 mph 1017.3mb 48f 58f
1:48 6 7 mph 1017.3mb 48f 58f
1:36 8 9 mph 1017.5mb 48f 57f
1:30 7 10 mph 1017.4mb 48f 57f
1:24 8 9 mph 1017.3mb 48f 57f
1:18 8 10 mph 1017.4mb 48f 57f
1:12 7 9 mph 1017.3mb 48f 57f
1:06 9 10 mph 1017.2mb 48f 58f
1:00 10 11 mph 1017.2mb 48f 58f
12:54 9 10 mph 1017.2mb 48f 58f
12:48 8 10 mph 1017.2mb 48f 58f
12:36 9 13 mph 1017.3mb 48f 58f
12:30 10 11 mph 1017.3mb 48f 58f
12:24 9 11 mph 1017.2mb 48f 59f
12:18 6 7 mph 1017.3mb 48f 58f
12:12 5 7 mph 1017.2mb 48f 59f
12:06 2 6 mph 1017.3mb 48f 58f
12:00 2 3 mph 1017.3mb 48f 58f
Fr 07/31 11:54 1 6 mph 1017.4mb 48f 58f
11:48 3 6 mph 1017.4mb 48f 58f
11:36 1 3 mph 1017.4mb 48f 58f
11:30 2 3 mph 1017.5mb 48f 58f
11:24 1 2 mph 1017.5mb 48f 57f
11:18 2
mph
1017.6mb 48f 58f
11:12 1 2 mph 1017.6mb 48f 57f
11:06  -  1 mph 1017.7mb 49f 57f
11:00  -  1 mph 1017.7mb 49f 58f
10:54  -  1 mph 1017.7mb 49f 58f
10:48  -  2 mph 1017.7mb 49f 58f
10:36  -  2 mph 1017.5mb 49f 58f
10:30  -  3 mph 1017.5mb 49f 58f
10:24  -  2 mph 1017.6mb 49f 58f
10:18 1 2 mph 1017.5mb 50f 58f
10:12 1 3 mph 1017.5mb 50f 58f
10:06 1 2 mph 1017.5mb 50f 58f
10:00 1
mph
1017.5mb 50f 58f
9:54 1 2 mph 1017.4mb 50f 58f
9:48 1 2 mph 1017.4mb 50f 58f
9:36  -  1 mph 1017.3mb 50f 58f
9:30 1 2 mph 1017.2mb 50f 58f
9:24 1 5 mph 1017.2mb 50f 58f
9:18 3 6 mph 1017.2mb 50f 59f
9:12 6 7 mph 1017.2mb 50f 59f
9:06 7 8 mph 1017.1mb 50f 59f
9:00 7 10 mph 1017.1mb 51f 59f
8:54 7 9 mph 1017.1mb 51f 58f
8:48 8 10 mph 1017.2mb 51f 58f
8:36 8 11 mph 1017.3mb 51f 59f
8:30 10 13 mph 1017.3mb 51f 59f
8:24 9 13 mph 1017.3mb 51f 59f
8:18 10 13 mph 1017.3mb 51f 59f
8:12 10 14 mph 1017.3mb 51f 59f
8:06 10 14 mph 1017.3mb 51f 59f
8:00 10 13 mph 1017.3mb 51f 59f
7:54 10 14 mph 1017.3mb 51f 59f
7:48 10 13 mph 1017.3mb 52f 59f
7:36 10 15 mph 1017.3mb 52f 59f
7:30 11 15 mph 1017.4mb 51f 59f
7:24 13 15 mph 1017.4mb 51f 59f
7:18 11 14 mph 1017.4mb 51f 59f
7:12 9 13 mph 1017.4mb 51f 59f
7:06 8 13 mph 1017.4mb 51f 59f
7:00 9 13 mph 1017.4mb 50f 59f
6:54 9 13 mph 1017.4mb 50f 59f
6:48 10 13 mph 1017.5mb 50f 59f
6:36 10 13 mph 1017.5mb 49f 59f
6:30 10 14 mph 1017.6mb 49f 59f
6:24 11 14 mph 1017.6mb 49f 59f
6:18 11 15 mph 1017.8mb 49f 60f
6:12 13 15 mph 1017.8mb 49f 59f
6:06 10 14 mph 1017.8mb 49f 59f
6:00 11 14 mph 1017.9mb 49f 59f
5:54 10 14 mph 1017.9mb 49f 59f
5:48 10 13 mph 1017.9mb 49f 59f
5:36 9 13 mph 1018.1mb 49f 59f
5:30 10 15 mph 1018.2mb 49f 59f
5:24 11 15 mph 1018.2mb 49f 59f
5:18 11 15 mph 1018.3mb 49f 59f
5:12 11 14 mph 1018.3mb 49f 59f
5:06 10 14 mph 1018.4mb 49f 60f
5:00 10 13 mph 1018.4mb 49f 59f
4:54 11 14 mph 1018.5mb 49f 59f
4:48 10 14 mph 1018.5mb 49f 59f
4:36 11 14 mph 1018.7mb 49f 59f
3:36 7 9 mph 1019.2mb 49f 58f
3:30 7 9 mph 1019.3mb 49f 58f
3:24 7 9 mph 1019.3mb 49f 58f
3:18 7 9 mph 1019.4mb 49f 58f
3:12 8 10 mph 1019.5mb 49f 58f
3:06 8 10 mph 1019.5mb 49f 58f
3:00 7 8 mph 1019.6mb 49f 58f
2:54 6 8 mph 1019.6mb 49f 57f
2:48 7 8 mph 1019.6mb 49f 57f
2:36 6 7 mph 1019.7mb 49f 57f
2:30 5 7 mph 1019.7mb 49f 57f
2:24 6 7 mph 1019.7mb 49f 57f
2:18 6 8 mph 1019.7mb 49f 57f
2:12 7 8 mph 1019.7mb 49f 57f
2:06 5 7 mph 1019.7mb 49f 57f
2:00 5 9 mph 1019.6mb 49f 57f
1:54 7 9 mph 1019.6mb 49f 58f
1:48 8 9 mph 1019.6mb 49f 58f
1:36 7 9 mph 1019.7mb 49f 58f
1:30 8 9 mph 1019.7mb 49f 58f
1:24 7 9 mph 1019.7mb 49f 57f
1:18 7 8 mph 1019.7mb 49f 57f
1:12 7 8 mph 1019.8mb 49f 57f
1:06 6 7 mph 1019.8mb 49f 57f
1:00 5 7 mph 1019.8mb 49f 56f
12:54 6 7 mph 1019.7mb 49f 56f
12:48 6 8 mph 1019.8mb 49f 56f
12:36 7 9 mph 1019.8mb 50f 56f
12:30 7 9 mph 1019.8mb 50f 56f
12:24 7 8 mph 1019.8mb 50f 56f
12:18 6 8 mph 1019.8mb 49f 56f
12:12 5 6 mph 1019.8mb 49f 56f
12:06 6 7 mph 1019.8mb 49f 56f
12:00 6 7 mph 1019.9mb 49f 56f
11:54 7 8 mph 1019.9mb 49f 56f
11:48 6 8 mph 1019.9mb 50f 56f
11:36 7 9 mph 1019.9mb 50f 56f
11:30 7 9 mph 1020mb 50f 56f
11:24 8 9 mph 1020.1mb 50f 56f
11:18 7 8 mph 1020.1mb 50f 56f
11:12 6 8 mph 1020.1mb 50f 56f
11:06 6 7 mph 1020.1mb 50f 56f
11:00 6 7 mph 1020.1mb 50f 56f
10:54 6 7 mph 1020.1mb 50f 56f
10:48 6 8 mph 1020mb 50f 56f
10:36 5 6 mph 1020mb 50f 55f
10:30 5 6 mph 1020.1mb 50f 55f
10:24 5 6 mph 1020.1mb 50f 55f
10:18 3 6 mph 1020mb 50f 55f
10:12 3 5 mph 1020mb 50f 55f
10:06 3 5 mph 1020mb 50f 55f
10:00 3 5 mph 1020mb 50f 55f
9:54 3 5 mph 1020mb 50f 56f
9:48 2 3 mph 1020mb 49f 56f
9:36 2 3 mph 1020mb 50f 56f
9:30 2 3 mph 1020mb 50f 56f
9:24 2 3 mph 1020mb 51f 56f
9:18 1 2 mph 1020mb 51f 57f
9:12 2
mph
1020mb 51f 57f
9:06 2
mph
1020mb 52f 57f
9:00 2
mph
1020mb 53f 57f
8:54  -  1 mph 1020mb 54f 57f
8:48  -  1 mph 1020mb 55f 57f
8:36  -  2 mph 1020.1mb 57f 56f
8:30  -  2 mph 1020.1mb 58f 56f
8:24 2 3 mph 1020.1mb 58f 55f
8:18 3 5 mph 1020mb 58f 55f
8:12 5 6 mph 1020mb 58f 54f
8:06 5 7 mph 1019.9mb 58f 54f
8:00 6 7 mph 1019.9mb 59f 53f
7:54 5 7 mph 1019.9mb 59f 53f
7:48 3 6 mph 1019.8mb 59f 53f
7:36 3 6 mph 1019.8mb 59f 52f
7:30 5 6 mph 1019.7mb 58f 52f
7:24 5 6 mph 1019.6mb 58f 52f
7:18 2 6 mph 1019.6mb 58f 51f
7:12 5 6 mph 1019.6mb 59f 51f
7:06 2 6 mph 1019.5mb 58f 51f
7:00 5 7 mph 1019.5mb 59f 51f
6:54 6 7 mph 1019.4mb 58f 51f
6:48 6 7 mph 1019.4mb 58f 51f
6:36 6 7 mph 1019.3mb 58f 50f
6:30 6 8 mph 1019.3mb 58f 50f
6:24 5 6 mph 1019.2mb 58f 50f
6:18 6 7 mph 1019.3mb 58f 50f
6:12 6 7 mph 1019.3mb 58f 51f
6:06 5 6 mph 1019.2mb 58f 51f
6:00 5 6 mph 1019.2mb 58f 51f
5:54 5 6 mph 1019.2mb 58f 51f
5:48 5 7 mph 1019.2mb 57f 51f
5:36 6 7 mph 1019mb 56f 51f
5:30 6 7 mph 1019mb 54f 51f
5:24 5 6 mph 1019.1mb 53f 51f
5:18 5 7 mph 1019mb 52f 51f
5:12 5 6 mph 1019mb 51f 52f
5:06 5 6 mph 1019mb 50f 51f
5:00 6 7 mph 1019mb 50f 52f
4:54 3 6 mph 1019mb 49f 51f
4:48 3 6 mph 1019.1mb 49f 52f
4:36 3 5 mph 1019.1mb 49f 53f
4:30 5
mph
1019.1mb 49f 53f
4:24 2 5 mph 1019.1mb 49f 52f
4:18 3
mph
1019.1mb 49f 53f
4:12 2 3 mph 1019mb 49f 54f
4:06 1 2 mph 1019mb 49f 54f
4:00 1 3 mph 1019mb 49f 54f
3:54  -  2 mph 1019mb 49f 55f
3:48 2
mph
1019mb 49f 55f
3:36 2 3 mph 1018.9mb 49f 54f
3:30 2
mph
1018.9mb 49f 54f
3:24 2 3 mph 1018.8mb 49f 54f
3:18 2 3 mph 1018.8mb 49f 54f
3:12 2 3 mph 1018.9mb 49f 54f
3:06 2 3 mph 1018.8mb 49f 55f
3:00 1 2 mph 1018.8mb 49f 54f
2:54 1 3 mph 1018.8mb 49f 54f
2:48 3
mph
1018.9mb 48f 54f
2:36 2 5 mph 1018.9mb 48f 54f
2:30 2 3 mph 1018.9mb 48f 54f
2:24 3
mph
1018.8mb 48f 56f
2:18 2 3 mph 1018.8mb 48f 54f
2:12 2
mph
1018.7mb 48f 55f
2:06 2
mph
1018.7mb 49f 56f
2:00  -  2 mph 1018.7mb 49f 55f
1:54  -  2 mph 1018.7mb 49f 56f
1:48 1 2 mph 1018.7mb 49f 56f
1:36 2 3 mph 1018.7mb 49f 57f
1:30 3 6 mph 1018.7mb 49f 57f
1:24 5 6 mph 1018.7mb 49f 57f
1:18 5
mph
1018.7mb 49f 57f
1:12 3 5 mph 1018.7mb 49f 57f
1:06 5 6 mph 1018.7mb 49f 56f
1:00 1 2 mph 1018.7mb 49f 56f
12:54 2 3 mph 1018.8mb 49f 57f
12:48 3 5 mph 1018.9mb 49f 56f
12:36 5 6 mph 1019mb 49f 57f
12:30 5 6 mph 1019mb 49f 57f
12:24 5
mph
1019mb 49f 57f
12:18 5
mph
1019mb 49f 57f
12:12 3 5 mph 1019mb 49f 57f
12:06 3 5 mph 1019mb 49f 57f
12:00 3
mph
1018.9mb 49f 57f
Do 07/30 11:54 3 6 mph 1018.9mb 49f 58f
11:48 5
mph
1018.9mb 49f 57f
11:36 5 6 mph 1018.8mb 49f 58f
11:30 5 6 mph 1018.8mb 49f 58f
11:24 3 5 mph 1018.8mb 49f 58f
11:18 5 6 mph 1018.8mb 49f 59f
11:12 5 6 mph 1018.9mb 49f 59f
11:06 6 7 mph 1018.8mb 49f 58f
11:00 7
mph
1018.8mb 49f 58f
10:54 7 8 mph 1018.9mb 49f 58f
10:48 7 9 mph 1018.9mb 50f 58f
10:36 7 8 mph 1018.9mb 50f 58f
10:30 6 8 mph 1018.9mb 50f 58f
10:24 6 9 mph 1018.9mb 50f 58f
10:18 6 8 mph 1018.8mb 50f 58f
10:12 7 9 mph 1018.8mb 50f 58f
10:06 8 9 mph 1018.8mb 50f 58f
10:00 8 9 mph 1018.7mb 50f 59f
9:54 7 11 mph 1018.7mb 50f 59f
9:48 9 10 mph 1018.6mb 50f 59f
9:36 8 14 mph 1018.6mb 50f 58f
9:30 8 10 mph 1018.5mb 50f 58f
9:24 9 13 mph 1018.4mb 50f 58f
9:18 9 10 mph 1018.3mb 50f 58f
9:12 10 11 mph 1018.3mb 50f 59f
9:06 10 11 mph 1018.2mb 50f 59f
9:00 10 11 mph 1018.2mb 50f 59f
8:54 8 11 mph 1018.2mb 50f 59f
8:48 7 11 mph 1018.1mb 51f 60f
8:36 7 11 mph 1018.1mb 51f 60f
8:30 8 11 mph 1018.1mb 51f 60f
8:24 10 13 mph 1018.1mb 51f 60f
8:18 10 14 mph 1018mb 51f 60f
8:12 10 14 mph 1018.1mb 51f 60f
8:06 13 17 mph 1018.1mb 51f 60f
8:00 10 14 mph 1018.1mb 52f 60f
7:54 13 16 mph 1018.1mb 52f 61f
7:48 13 17 mph 1018.1mb 52f 61f
7:36 14 18 mph 1018.1mb 52f 61f
7:30 14 21 mph 1018.1mb 52f 61f
7:24 15 20 mph 1018mb 53f 62f
7:18 16 20 mph 1018mb 53f 62f
7:12 16 20 mph 1018mb 53f 63f
7:06 15 22 mph 1018mb 53f 62f
7:00 15 22 mph 1018mb 53f 62f
6:54 15 22 mph 1018mb 53f 62f
6:48 16 20 mph 1018.1mb 53f 62f
6:36 17 22 mph 1018.1mb 53f 61f
6:30 16 22 mph 1018.2mb 54f 61f
6:24 16 23 mph 1018.2mb 54f 61f
6:18 16 21 mph 1018.2mb 54f 60f
6:12 17 22 mph 1018.2mb 54f 60f
6:06 17 21 mph 1018.3mb 53f 60f
6:00 16 21 mph 1018.4mb 53f 60f
5:54 15 20 mph 1018.4mb 53f 60f
5:48 17 22 mph 1018.4mb 52f 61f
5:36 18 22 mph 1018.5mb 51f 61f
5:30 16 21 mph 1018.5mb 51f 61f
5:24 17 22 mph 1018.5mb 50f 61f
5:18 18 23 mph 1018.6mb 50f 60f
5:12 18 24 mph 1018.6mb 50f 61f
5:06 17 22 mph 1018.7mb 50f 60f
5:00 18 22 mph 1018.7mb 50f 61f
4:54 17 23 mph 1018.8mb 50f 61f
4:48 17 22 mph 1018.9mb 50f 60f
4:36 17 24 mph 1018.9mb 50f 60f
4:30 18 24 mph 1019mb 50f 60f
4:24 18 23 mph 1019mb 49f 59f
4:18 18 23 mph 1019mb 49f 60f
4:12 18 22 mph 1019.1mb 49f 59f
4:06 18 23 mph 1019.1mb 49f 60f
4:00 18 23 mph 1019.1mb 49f 60f
3:54 17 21 mph 1019.1mb 49f 60f
3:48 18 22 mph 1019.1mb 49f 60f
3:36 16 20 mph 1019.1mb 49f 62f
3:30 15 21 mph 1019.1mb 49f 62f
3:24 16 20 mph 1019.2mb 49f 61f
3:18 15 21 mph 1019.2mb 49f 61f
3:12 15 21 mph 1019.2mb 49f 60f
3:06 18 21 mph 1019.4mb 49f 60f
3:00 17 22 mph 1019.4mb 49f 60f
2:54 17 22 mph 1019.4mb 49f 61f
2:48 16 21 mph 1019.4mb 49f 61f
2:36 16 21 mph 1019.5mb 49f 60f
2:30 14 17 mph 1019.5mb 49f 60f
2:24 14 20 mph 1019.5mb 49f 60f
2:18 15 17 mph 1019.5mb 49f 60f
2:12 16 21 mph 1019.5mb 49f 60f
2:06 15 18 mph 1019.6mb 49f 60f
2:00 15 20 mph 1019.6mb 49f 60f
1:54 17 22 mph 1019.6mb 49f 60f
1:48 16 22 mph 1019.6mb 49f 60f
1:36 15 20 mph 1019.7mb 49f 59f
1:30 10 14 mph 1019.7mb 49f 59f
1:24 14 18 mph 1019.8mb 49f 60f
1:18 15 17 mph 1019.8mb 49f 60f
1:12 13 14 mph 1019.7mb 49f 60f
1:06 10 13 mph 1019.8mb 49f 59f
1:00 9 13 mph 1019.8mb 49f 59f
12:54 9 11 mph 1019.8mb 49f 59f
12:48 8 10 mph 1019.9mb 49f 58f
12:36 6
mph
1019.8mb 49f 58f
12:30 5 6 mph 1019.8mb 49f 58f
12:24 5 6 mph 1019.7mb 49f 58f
12:18 6 7 mph 1019.7mb 49f 58f
12:12 5 6 mph 1019.7mb 49f 58f
12:06 6 7 mph 1019.7mb 49f 58f
12:00 6
mph
1019.7mb 49f 58f
11:54 5 6 mph 1019.6mb 49f 58f
11:48 3 6 mph 1019.7mb 49f 58f
11:36 5 6 mph 1019.7mb 49f 58f
11:30 3 5 mph 1019.6mb 49f 58f
11:24 3 5 mph 1019.5mb 49f 58f
11:18 3 5 mph 1019.6mb 49f 58f
11:12 3 5 mph 1019.6mb 49f 58f
11:06 3 5 mph 1019.6mb 49f 58f
11:00 3 6 mph 1019.6mb 50f 58f
10:54 3 5 mph 1019.5mb 50f 57f
10:48 3 5 mph 1019.5mb 50f 57f
10:36 5 6 mph 1019.5mb 50f 57f
10:30 5 6 mph 1019.5mb 50f 57f
10:24 5 6 mph 1019.6mb 50f 57f
10:18 3 5 mph 1019.5mb 50f 56f
10:12 3 5 mph 1019.5mb 50f 56f
10:06 3 6 mph 1019.6mb 51f 56f
10:00 3 5 mph 1019.6mb 51f 56f
9:54 3 5 mph 1019.5mb 51f 56f
9:48 5
mph
1019.5mb 51f 55f
9:36 5
mph
1019.5mb 52f 56f
9:30 5
mph
1019.5mb 52f 56f
9:24 3 5 mph 1019.6mb 52f 56f
9:18 3 5 mph 1019.6mb 52f 56f
9:12 2 3 mph 1019.6mb 52f 56f
9:06 2 3 mph 1019.6mb 53f 56f
9:00 3 5 mph 1019.6mb 53f 56f
8:54 3
mph
1019.6mb 53f 56f
8:48 3
mph
1019.5mb 53f 56f
8:36 5 6 mph 1019.5mb 54f 57f
8:30 5 6 mph 1019.5mb 55f 57f
8:24 5
mph
1019.5mb 55f 57f
8:18 3 5 mph 1019.4mb 56f 58f
8:12 3 6 mph 1019.4mb 57f 58f
8:06 6 7 mph 1019.4mb 58f 57f
8:00 3 7 mph 1019.4mb 59f 57f
7:54 5 7 mph 1019.3mb 59f 57f
7:48 6 8 mph 1019.3mb 60f 56f
7:36 3 6 mph 1019.4mb 60f 55f
7:30 3 6 mph 1019.5mb 61f 55f
7:24 3 6 mph 1019.5mb 61f 54f
7:18 3 6 mph 1019.4mb 61f 54f
7:12 3 6 mph 1019.4mb 61f 54f
7:06 3 8 mph 1019.4mb 61f 53f
7:00 5 6 mph 1019.3mb 61f 53f
6:54 2 8 mph 1019.2mb 61f 52f
6:48 6 8 mph 1019.2mb 61f 53f
6:36 3 6 mph - - 52f
6:30 3 7 mph 1019.1mb 61f 52f
6:24 5 7 mph 1019.1mb 61f 52f
6:18 5 7 mph 1019mb 61f 51f
6:12 5 8 mph 1019mb 61f 51f
6:06 6
mph
1019mb 61f 51f
6:00 6 8 mph 1019mb 61f 52f
5:54 6 7 mph 1018.9mb 61f 51f
5:48 6
mph
1019mb 61f 51f
5:36  -  mph - 61f 53f
5:30  -  mph - 61f 53f
5:24  -  mph - 60f 52f
5:18  -  mph - - 53f
5:12  -  mph - 60f 53f
5:06  -  mph - 60f 53f
5:00  -  mph - 59f 54f
4:54  -  mph - - 54f
4:48  -  mph - - 54f
2:36  -  mph - - 54f
2:30  -  mph - - 54f
2:24  -  mph - - 54f
2:18  -  mph - - 55f
2:12  -  mph - - 55f
2:06  -  mph - - 55f
2:00  -  mph - - 56f
1:54  -  mph - - 56f
1:48  -  mph - - 55f
1:36  -  mph - - 55f
1:30  -  mph - - 54f
1:24  -  mph - - 55f
1:18  -  mph - - 55f
1:12  -  mph - - 56f
1:06  -  mph - - 56f
1:00  -  mph - - 56f
12:54  -  mph - - 56f
12:48  -  mph - - 56f
12:36  -  mph - - 56f
12:30  -  mph - - 56f
12:24  -  mph - - 57f
12:18  -  mph - - 56f
12:12  -  mph - - 57f
12:06  -  mph - - 56f
12:00  -  mph - - 57f
Mi 07/29 11:54  -  mph - - 57f
11:48  -  mph - - 57f
11:36  -  mph - - 57f
11:30  -  mph - - 58f
11:24  -  mph - - 58f
11:18  -  mph - - 57f
11:12  -  mph - - 57f
11:06  -  mph - - 58f
11:00  -  mph - - 58f
10:54  -  mph - - 58f
10:48  -  mph - - 58f
8:36  -  mph - 53f 61f
8:30  -  mph - 54f 61f
8:24  -  mph - 54f 62f
8:18  -  mph - 54f 61f
8:12  -  mph - 54f 61f
8:06  -  mph - 54f 62f
8:00  -  mph - 54f 62f
7:54  -  mph - 55f 62f
7:48  -  mph - 55f 62f
4:36  -  mph 1021.2mb 55f 56f
4:30  -  mph 1021.2mb 54f 56f
4:24  -  mph 1021.3mb 54f 56f
4:18  -  mph 1021.3mb 54f 56f
4:12  -  mph 1021.4mb 54f 56f
4:06  -  mph 1021.4mb 54f 56f
4:00  -  mph 1021.5mb 54f 56f
3:54  -  mph 1021.5mb 54f 56f
3:48  -  mph 1021.6mb 54f 56f
2:36  -  mph - - 56f
2:30  -  mph - - 56f
2:24  -  mph - - 56f
2:18  -  mph - - 55f
2:12  -  mph - - 55f
2:06  -  mph - - 55f